createdAt,value
2018-08-28T00:02:16.378Z,3.43
2018-08-28T00:04:43.384Z,3.43
2018-08-28T00:07:10.478Z,4.00
2018-08-28T00:09:37.515Z,4.00
2018-08-28T00:14:45.039Z,3.80
2018-08-28T00:17:12.095Z,3.70
2018-08-28T00:19:39.803Z,4.10
2018-08-28T00:22:06.824Z,3.37
2018-08-28T00:24:33.818Z,3.10
2018-08-28T00:27:00.909Z,3.70
2018-08-28T00:29:27.943Z,3.50
2018-08-28T00:31:54.949Z,3.57
2018-08-28T00:34:21.963Z,3.07
2018-08-28T00:36:49.001Z,3.30
2018-08-28T00:39:15.991Z,3.57
2018-08-28T00:41:43.829Z,3.70
2018-08-28T00:44:10.867Z,3.87
2018-08-28T00:46:37.854Z,3.53
2018-08-28T00:49:04.854Z,3.60
2018-08-28T00:51:31.932Z,3.33
2018-08-28T00:53:58.879Z,3.23
2018-08-28T00:56:25.883Z,3.37
2018-08-28T00:58:52.918Z,3.90
2018-08-28T01:01:19.918Z,3.53
2018-08-28T01:03:46.915Z,3.67
2018-08-28T01:06:14.044Z,3.43
2018-08-28T01:08:41.040Z,3.60
2018-08-28T01:11:08.038Z,4.20
2018-08-28T01:13:35.061Z,3.80
2018-08-28T01:16:02.921Z,3.73
2018-08-28T01:18:29.920Z,3.47
2018-08-28T01:20:56.962Z,4.07
2018-08-28T01:23:24.030Z,3.47
2018-08-28T01:25:51.019Z,3.80
2018-08-28T01:30:56.534Z,4.00
2018-08-28T01:33:23.578Z,3.77
2018-08-28T01:35:50.571Z,4.00
2018-08-28T01:38:17.572Z,3.13
2018-08-28T01:40:44.620Z,3.30
2018-08-28T01:43:11.627Z,3.23
2018-08-28T01:45:38.632Z,3.20
2018-08-28T01:48:05.742Z,3.17
2018-08-28T01:50:32.728Z,3.37
2018-08-28T01:52:59.723Z,2.87
2018-08-28T01:55:26.837Z,3.40
2018-08-28T01:57:53.833Z,3.53
2018-08-28T02:00:20.838Z,3.47
2018-08-28T02:02:47.888Z,3.23
2018-08-28T02:05:14.876Z,3.37
2018-08-28T02:07:41.878Z,3.30
2018-08-28T02:10:08.893Z,3.40
2018-08-28T02:12:36.001Z,2.80
2018-08-28T02:15:03.863Z,3.47
2018-08-28T02:17:30.898Z,2.97
2018-08-28T02:19:57.971Z,3.10
2018-08-28T02:22:24.969Z,3.57
2018-08-28T02:24:51.995Z,3.67
2018-08-28T02:27:19.003Z,3.07
2018-08-28T02:29:46.008Z,3.00
2018-08-28T02:32:13.062Z,3.50
2018-08-28T02:34:40.082Z,3.13
2018-08-28T02:37:07.101Z,3.40
2018-08-28T02:39:34.219Z,3.23
2018-08-28T02:42:01.233Z,3.57
2018-08-28T02:44:28.218Z,3.07
2018-08-28T02:46:55.270Z,3.43
2018-08-28T02:49:22.297Z,3.97
2018-08-28T02:54:27.809Z,3.90
2018-08-28T02:56:54.801Z,2.93
2018-08-28T02:59:21.850Z,3.43
2018-08-28T03:01:48.885Z,3.40
2018-08-28T03:04:15.885Z,2.97
2018-08-28T03:06:42.883Z,3.17
2018-08-28T03:09:09.912Z,3.20
2018-08-28T03:11:37.060Z,3.43
2018-08-28T03:14:04.023Z,3.50
2018-08-28T03:16:31.069Z,3.63
2018-08-28T03:18:58.942Z,3.30
2018-08-28T03:21:25.959Z,3.50
2018-08-28T03:23:53.821Z,3.20
2018-08-28T03:26:20.806Z,3.00
2018-08-28T03:28:47.807Z,3.53
2018-08-28T03:31:14.829Z,3.30
2018-08-28T03:33:41.825Z,3.63
2018-08-28T03:36:09.806Z,3.60
2018-08-28T03:38:36.842Z,2.73
2018-08-28T03:41:04.665Z,3.37
2018-08-28T03:43:31.657Z,3.10
2018-08-28T03:45:58.697Z,2.90
2018-08-28T03:48:25.712Z,3.20
2018-08-28T03:50:52.710Z,3.10
2018-08-28T03:53:19.752Z,3.27
2018-08-28T03:55:46.748Z,3.20
2018-08-28T03:58:13.754Z,3.27
2018-08-28T04:00:40.782Z,3.57
2018-08-28T04:03:07.787Z,3.60
2018-08-28T04:05:34.928Z,3.67
2018-08-28T04:10:41.367Z,3.83
2018-08-28T04:13:08.418Z,3.40
2018-08-28T04:15:35.417Z,3.23
2018-08-28T04:18:02.413Z,3.40
2018-08-28T04:20:30.284Z,3.73
2018-08-28T04:22:57.283Z,3.30
2018-08-28T04:25:25.167Z,3.30
2018-08-28T04:27:52.214Z,3.67
2018-08-28T04:30:19.242Z,3.20
2018-08-28T04:32:46.233Z,3.43
2018-08-28T04:35:13.286Z,2.67
2018-08-28T04:37:40.297Z,3.07
2018-08-28T04:40:07.307Z,3.03
2018-08-28T04:42:34.358Z,3.13
2018-08-28T04:45:01.351Z,2.73
2018-08-28T04:47:28.363Z,3.13
2018-08-28T04:49:55.409Z,2.97
2018-08-28T04:52:22.389Z,3.30
2018-08-28T04:54:49.471Z,3.30
2018-08-28T04:57:16.444Z,3.33
2018-08-28T04:59:43.430Z,3.30
2018-08-28T05:02:10.440Z,3.10
2018-08-28T05:04:37.492Z,3.37
2018-08-28T05:07:04.483Z,3.23
2018-08-28T05:09:31.472Z,2.90
2018-08-28T05:11:58.504Z,3.57
2018-08-28T05:14:26.349Z,3.63
2018-08-28T05:16:53.345Z,3.50
2018-08-28T05:19:20.595Z,3.70
2018-08-28T05:21:47.549Z,3.17
2018-08-28T05:24:14.568Z,2.80
2018-08-28T05:26:41.633Z,3.77
2018-08-28T05:31:47.173Z,3.70
2018-08-28T05:34:14.179Z,2.87
2018-08-28T05:36:41.175Z,3.40
2018-08-28T05:39:08.204Z,3.50
2018-08-28T05:41:35.203Z,3.47
2018-08-28T05:44:02.209Z,3.23
2018-08-28T05:46:30.104Z,3.33
2018-08-28T05:48:57.109Z,3.87
2018-08-28T05:51:24.118Z,3.70
2018-08-28T05:53:51.154Z,3.37
2018-08-28T05:56:18.194Z,3.70
2018-08-28T05:58:46.151Z,4.20
2018-08-28T06:01:13.209Z,3.73
2018-08-28T06:03:40.224Z,3.70
2018-08-28T06:06:08.083Z,4.20
2018-08-28T06:08:36.076Z,3.50
2018-08-28T06:11:03.063Z,4.20
2018-08-28T06:13:30.059Z,3.80
2018-08-28T06:15:57.116Z,3.70
2018-08-28T06:18:24.112Z,3.67
2018-08-28T06:20:51.930Z,3.97
2018-08-28T06:23:18.961Z,3.80
2018-08-28T06:25:45.950Z,3.30
2018-08-28T06:28:12.957Z,3.80
2018-08-28T06:30:39.992Z,3.73
2018-08-28T06:33:06.999Z,3.70
2018-08-28T06:35:34.030Z,4.33
2018-08-28T06:38:01.065Z,3.93
2018-08-28T06:40:28.053Z,4.20
2018-08-28T06:42:56.012Z,3.73
2018-08-28T06:45:23.061Z,3.73
2018-08-28T06:47:51.505Z,3.20
2018-08-28T06:50:18.513Z,2.93
2018-08-28T06:52:45.570Z,3.47
2018-08-28T06:57:51.071Z,3.95
2018-08-28T07:00:18.364Z,3.63
2018-08-28T07:02:45.368Z,3.93
2018-08-28T07:05:12.399Z,3.90
2018-08-28T07:07:39.394Z,4.00
2018-08-28T07:10:06.410Z,4.43
2018-08-28T07:12:33.417Z,4.33
2018-08-28T07:15:00.425Z,3.80
2018-08-28T07:17:27.432Z,3.40
2018-08-28T07:19:54.481Z,3.43
2018-08-28T07:22:21.483Z,3.67
2018-08-28T07:24:48.663Z,3.73
2018-08-28T07:27:15.709Z,3.47
2018-08-28T07:29:42.709Z,3.47
2018-08-28T07:32:09.724Z,3.37
2018-08-28T07:34:36.778Z,3.93
2018-08-28T07:37:03.765Z,3.53
2018-08-28T07:39:30.773Z,3.27
2018-08-28T07:41:57.813Z,3.50
2018-08-28T07:44:24.826Z,3.50
2018-08-28T07:46:51.822Z,3.87
2018-08-28T07:49:18.846Z,3.40
2018-08-28T07:51:45.849Z,3.30
2018-08-28T07:54:12.843Z,3.57
2018-08-28T07:56:39.894Z,3.23
2018-08-28T07:59:06.892Z,3.67
2018-08-28T08:01:34.838Z,3.93
2018-08-28T08:04:01.799Z,3.30
2018-08-28T08:06:28.783Z,3.80
2018-08-28T08:08:56.738Z,3.30
2018-08-28T08:14:02.435Z,3.65
2018-08-28T08:16:29.480Z,4.00
2018-08-28T08:18:57.313Z,3.33
2018-08-28T08:21:24.310Z,3.37
2018-08-28T08:23:51.337Z,3.40
2018-08-28T08:26:18.327Z,3.47
2018-08-28T08:28:45.324Z,3.73
2018-08-28T08:31:12.355Z,3.70
2018-08-28T08:33:39.371Z,3.23
2018-08-28T08:36:06.365Z,3.80
2018-08-28T08:38:33.392Z,2.83
2018-08-28T08:41:00.389Z,3.37
2018-08-28T08:43:27.396Z,3.53
2018-08-28T08:45:54.447Z,3.27
2018-08-28T08:48:21.443Z,3.00
2018-08-28T08:50:48.450Z,3.40
2018-08-28T08:53:15.510Z,4.07
2018-08-28T08:55:42.520Z,3.40
2018-08-28T08:58:09.538Z,3.90
2018-08-28T09:00:36.680Z,3.43
2018-08-28T09:03:03.768Z,3.27
2018-08-28T09:05:30.768Z,3.23
2018-08-28T09:07:57.814Z,3.70
2018-08-28T09:10:25.283Z,3.17
2018-08-28T09:12:52.377Z,3.90
2018-08-28T09:15:19.419Z,3.13
2018-08-28T09:17:47.270Z,3.40
2018-08-28T09:20:14.271Z,3.33
2018-08-28T09:22:41.297Z,3.40
2018-08-28T09:25:08.342Z,3.70
2018-08-28T09:27:35.364Z,3.53
2018-08-28T09:30:02.396Z,3.70
2018-08-28T09:35:07.925Z,3.60
2018-08-28T09:37:34.933Z,3.40
2018-08-28T09:40:01.931Z,3.67
2018-08-28T09:42:28.962Z,3.30
2018-08-28T09:44:56.919Z,3.23
2018-08-28T09:47:23.923Z,3.63
2018-08-28T09:49:51.042Z,2.73
2018-08-28T09:52:18.002Z,3.30
2018-08-28T09:54:45.006Z,3.63
2018-08-28T09:57:12.147Z,3.60
2018-08-28T09:59:39.231Z,3.73
2018-08-28T10:02:07.046Z,3.57
2018-08-28T10:04:34.991Z,3.60
2018-08-28T10:07:01.968Z,3.53
2018-08-28T10:09:28.957Z,3.17
2018-08-28T10:11:55.983Z,3.10
2018-08-28T10:14:22.998Z,3.37
2018-08-28T10:16:50.021Z,3.47
2018-08-28T10:19:17.063Z,3.30
2018-08-28T10:21:44.055Z,2.93
2018-08-28T10:24:11.051Z,3.37
2018-08-28T10:26:38.096Z,3.03
2018-08-28T10:29:05.100Z,2.90
2018-08-28T10:31:32.093Z,3.30
2018-08-28T10:33:59.123Z,3.47
2018-08-28T10:36:26.132Z,3.50
2018-08-28T10:38:53.132Z,3.30
2018-08-28T10:41:20.172Z,3.10
2018-08-28T10:43:47.545Z,3.07
2018-08-28T10:46:14.648Z,2.80
2018-08-28T10:48:41.571Z,3.37
2018-08-28T10:51:08.561Z,3.20
2018-08-28T10:56:16.070Z,3.13
2018-08-28T10:58:43.129Z,3.40
2018-08-28T11:01:10.063Z,2.80
2018-08-28T11:03:37.099Z,3.40
2018-08-28T11:06:04.086Z,3.20
2018-08-28T11:08:31.103Z,3.07
2018-08-28T11:10:58.106Z,3.00
2018-08-28T11:13:25.106Z,2.33
2018-08-28T11:15:52.094Z,2.40
2018-08-28T11:18:19.126Z,2.50
2018-08-28T11:20:46.112Z,3.03
2018-08-28T11:23:13.103Z,2.37
2018-08-28T11:25:40.216Z,2.87
2018-08-28T11:28:08.179Z,2.80
2018-08-28T11:30:35.161Z,2.67
2018-08-28T11:33:02.291Z,2.60
2018-08-28T11:35:29.291Z,3.27
2018-08-28T11:37:57.013Z,3.20
2018-08-28T11:40:24.867Z,3.90
2018-08-28T11:42:51.859Z,3.80
2018-08-28T11:45:18.848Z,3.13
2018-08-28T11:47:45.875Z,2.40
2018-08-28T11:50:13.609Z,3.13
2018-08-28T11:52:40.630Z,2.43
2018-08-28T11:55:08.371Z,2.70
2018-08-28T11:57:35.370Z,2.67
2018-08-28T12:02:41.801Z,3.17
2018-08-28T12:05:09.659Z,2.60
2018-08-28T12:07:37.421Z,2.53
2018-08-28T12:10:04.434Z,2.90
2018-08-28T12:12:31.428Z,2.60
2018-08-28T12:14:58.500Z,2.30
2018-08-28T12:17:25.531Z,2.30
2018-08-28T12:19:52.521Z,3.10
2018-08-28T12:22:19.502Z,3.10
2018-08-28T12:24:46.531Z,3.13
2018-08-28T12:27:13.514Z,2.70
2018-08-28T12:29:40.538Z,2.90
2018-08-28T12:32:07.534Z,2.87
2018-08-28T12:34:34.533Z,3.53
2018-08-28T12:37:02.499Z,2.93
2018-08-28T12:39:29.518Z,2.80
2018-08-28T12:41:56.516Z,2.90
2018-08-28T12:44:23.504Z,2.80
2018-08-28T12:46:50.520Z,2.63
2018-08-28T12:49:17.530Z,2.87
2018-08-28T12:51:44.525Z,3.20
2018-08-28T12:54:11.560Z,2.90
2018-08-28T12:56:38.543Z,3.10
2018-08-28T12:59:05.522Z,2.50
2018-08-28T13:01:32.561Z,3.03
2018-08-28T13:04:00.455Z,3.00
2018-08-28T13:06:27.449Z,2.70
2018-08-28T13:08:55.417Z,3.55
2018-08-28T13:11:22.402Z,3.33
2018-08-28T13:13:49.381Z,3.00
2018-08-28T13:16:16.415Z,3.07
2018-08-28T13:21:22.016Z,3.00
2018-08-28T13:23:49.014Z,3.10
2018-08-28T13:26:16.001Z,3.30
2018-08-28T13:28:43.014Z,2.97
2018-08-28T13:31:10.008Z,2.90
2018-08-28T13:33:37.104Z,3.40
2018-08-28T13:36:04.137Z,3.70
2018-08-28T13:38:31.122Z,2.97
2018-08-28T13:40:58.118Z,3.27
2018-08-28T13:43:25.157Z,3.13
2018-08-28T13:45:52.143Z,3.10
2018-08-28T13:48:19.134Z,3.20
2018-08-28T13:50:46.995Z,3.00
2018-08-28T13:53:14.949Z,3.10
2018-08-28T13:55:42.030Z,3.23
2018-08-28T13:58:09.060Z,3.10
2018-08-28T14:00:36.075Z,3.43
2018-08-28T14:03:03.039Z,3.10
2018-08-28T14:05:30.879Z,2.80
2018-08-28T14:07:57.872Z,3.10
2018-08-28T14:10:24.976Z,3.67
2018-08-28T14:12:51.898Z,3.10
2018-08-28T14:15:18.886Z,2.37
2018-08-28T14:17:46.740Z,2.97
2018-08-28T14:20:13.866Z,3.13
2018-08-28T14:22:40.962Z,3.27
2018-08-28T14:25:07.829Z,2.70
2018-08-28T14:27:34.860Z,2.97
2018-08-28T14:30:01.860Z,2.93
2018-08-28T14:32:28.854Z,2.90
2018-08-28T14:34:55.877Z,2.73
2018-08-28T14:40:01.374Z,3.40
2018-08-28T14:42:28.395Z,2.87
2018-08-28T14:44:55.367Z,3.10
2018-08-28T14:47:22.398Z,3.30
2018-08-28T14:49:49.420Z,3.50
2018-08-28T14:52:16.380Z,3.43
2018-08-28T14:54:43.430Z,2.93
2018-08-28T14:57:10.427Z,3.03
2018-08-28T14:59:37.440Z,3.63
2018-08-28T15:02:04.550Z,3.13
2018-08-28T15:04:31.542Z,3.33
2018-08-28T15:06:58.602Z,3.70
2018-08-28T15:09:25.578Z,3.33
2018-08-28T15:11:52.574Z,4.00
2018-08-28T15:14:19.581Z,3.97
2018-08-28T15:16:46.727Z,4.00
2018-08-28T15:19:14.599Z,3.90
2018-08-28T15:21:41.599Z,3.83
2018-08-28T15:24:08.641Z,4.10
2018-08-28T15:26:35.643Z,3.20
2018-08-28T15:29:02.647Z,3.50
2018-08-28T15:31:30.493Z,3.67
2018-08-28T15:33:57.478Z,3.10
2018-08-28T15:36:24.482Z,3.53
2018-08-28T15:38:51.563Z,3.73
2018-08-28T15:41:18.520Z,3.40
2018-08-28T15:43:45.516Z,3.47
2018-08-28T15:46:12.562Z,3.60
2018-08-28T15:48:39.565Z,3.87
2018-08-28T15:51:06.888Z,3.93
2018-08-28T15:53:33.891Z,3.50
2018-08-28T15:58:39.404Z,4.20
2018-08-28T16:01:06.411Z,3.93
2018-08-28T16:03:33.410Z,3.80
2018-08-28T16:06:00.457Z,4.03
2018-08-28T16:08:27.441Z,3.80
2018-08-28T16:10:54.443Z,3.83
2018-08-28T16:13:21.488Z,4.03
2018-08-28T16:15:48.530Z,3.97
2018-08-28T16:18:15.502Z,4.07
2018-08-28T16:20:42.531Z,3.90
2018-08-28T16:23:09.530Z,4.10
2018-08-28T16:25:37.364Z,3.70
2018-08-28T16:28:04.417Z,3.60
2018-08-28T16:30:31.415Z,3.83
2018-08-28T16:32:59.363Z,3.73
2018-08-28T16:37:53.255Z,3.80
2018-08-28T16:40:20.416Z,3.93
2018-08-28T16:42:47.475Z,3.40
2018-08-28T16:45:14.589Z,3.60
2018-08-28T16:47:41.676Z,3.67
2018-08-28T16:50:08.757Z,3.40
2018-08-28T16:52:35.842Z,3.60
2018-08-28T16:55:02.969Z,4.13
2018-08-28T16:57:30.029Z,3.43
2018-08-28T16:59:57.061Z,3.70
2018-08-28T17:02:24.052Z,3.70
2018-08-28T17:04:51.056Z,3.87
2018-08-28T17:07:18.369Z,3.67
2018-08-28T17:09:45.578Z,3.30
2018-08-28T17:12:12.748Z,3.30
2018-08-28T17:14:39.744Z,4.00
2018-08-28T17:17:06.733Z,3.87
2018-08-28T17:19:33.734Z,3.73
2018-08-28T17:22:03.481Z,4.97
2018-08-28T17:24:28.698Z,3.97
2018-08-28T17:26:55.679Z,3.90
2018-08-28T17:29:22.711Z,4.10
2018-08-28T17:31:49.720Z,4.63
2018-08-28T17:34:16.727Z,4.57
2018-08-28T17:36:43.758Z,4.40
2018-08-28T17:39:10.750Z,4.70
2018-08-28T17:41:38.508Z,4.10
2018-08-28T17:44:05.568Z,4.07
2018-08-28T17:46:32.556Z,3.60
2018-08-28T17:49:00.165Z,3.60
2018-08-28T17:51:26.666Z,3.70
2018-08-28T17:56:32.172Z,4.40
2018-08-28T17:58:59.158Z,4.00
2018-08-28T18:01:26.220Z,3.67
2018-08-28T18:03:54.050Z,4.20
2018-08-28T18:06:21.032Z,3.90
2018-08-28T18:08:48.817Z,4.07
2018-08-28T18:11:16.685Z,4.07
2018-08-28T18:13:44.634Z,3.93
2018-08-28T18:16:11.726Z,3.97
2018-08-28T18:18:38.747Z,4.13
2018-08-28T18:21:05.747Z,3.83
2018-08-28T18:23:32.744Z,3.83
2018-08-28T18:26:00.174Z,4.33
2018-08-28T18:28:28.162Z,3.90
2018-08-28T18:30:55.152Z,4.60
2018-08-28T18:33:22.293Z,4.20
2018-08-28T18:35:49.339Z,4.20
2018-08-28T18:38:16.405Z,4.07
2018-08-28T18:40:43.437Z,4.20
2018-08-28T18:43:10.441Z,4.33
2018-08-28T18:45:37.445Z,4.00
2018-08-28T18:48:04.494Z,4.27
2018-08-28T18:50:31.486Z,4.20
2018-08-28T18:52:58.805Z,3.87
2018-08-28T18:55:27.486Z,4.10
2018-08-28T18:57:55.631Z,4.30
2018-08-28T19:00:22.649Z,4.00
2018-08-28T19:05:28.370Z,4.77
2018-08-28T19:07:56.133Z,4.70
2018-08-28T19:13:03.711Z,4.80
2018-08-28T19:15:30.749Z,4.47
2018-08-28T19:17:57.753Z,4.77
2018-08-28T19:20:24.804Z,4.00
2018-08-28T19:22:51.803Z,4.53
2018-08-28T19:25:18.880Z,4.17
2018-08-28T19:27:45.945Z,4.97
2018-08-28T19:30:12.983Z,5.07
2018-08-28T19:32:40.722Z,4.53
2018-08-28T19:35:07.773Z,4.47
2018-08-28T19:37:34.983Z,4.33
2018-08-28T19:40:01.831Z,4.53
2018-08-28T19:42:28.899Z,4.27
2018-08-28T19:44:55.929Z,4.07
2018-08-28T19:47:22.964Z,4.47
2018-08-28T19:49:50.073Z,4.40
2018-08-28T19:52:17.023Z,4.60
2018-08-28T19:54:44.039Z,4.77
2018-08-28T19:57:11.116Z,4.03
2018-08-28T19:59:38.160Z,4.20
2018-08-28T20:02:05.201Z,3.93
2018-08-28T20:04:32.241Z,4.43
2018-08-28T20:06:59.229Z,4.27
2018-08-28T20:12:04.890Z,4.82
2018-08-28T20:17:19.222Z,5.00
2018-08-28T20:19:46.466Z,5.10
2018-08-28T20:22:13.888Z,4.80
2018-08-28T20:24:45.811Z,4.70
2018-08-28T20:27:13.644Z,4.33
2018-08-28T20:29:41.493Z,4.70
2018-08-28T20:32:09.114Z,4.97
2018-08-28T20:34:36.707Z,4.20
2018-08-28T20:37:04.599Z,4.17
2018-08-28T20:39:32.632Z,4.40
2018-08-28T20:41:59.599Z,4.40
2018-08-28T20:44:26.582Z,4.27
2018-08-28T20:46:53.619Z,4.17
2018-08-28T20:49:20.628Z,4.33
2018-08-28T20:51:47.627Z,4.30
2018-08-28T20:54:14.685Z,4.87
2018-08-28T20:56:41.702Z,4.03
2018-08-28T20:59:08.710Z,5.50
2018-08-28T21:01:35.751Z,4.77
2018-08-28T21:04:02.745Z,4.47
2018-08-28T21:06:29.829Z,4.27
2018-08-28T21:08:56.846Z,4.60
2018-08-28T21:11:23.961Z,4.27
2018-08-28T21:13:51.026Z,4.53
2018-08-28T21:16:18.128Z,3.57
2018-08-28T21:18:45.233Z,5.10
2018-08-28T21:21:12.264Z,4.90
2018-08-28T21:23:39.389Z,4.60
2018-08-28T21:26:06.427Z,4.57
2018-08-28T21:28:34.899Z,4.50
2018-08-28T21:31:01.051Z,5.97
2018-08-28T21:36:06.663Z,5.60
2018-08-28T21:38:33.726Z,5.00
2018-08-28T21:41:00.817Z,4.90
2018-08-28T21:43:27.856Z,4.53
2018-08-28T21:45:54.894Z,5.23
2018-08-28T21:48:21.956Z,5.67
2018-08-28T21:50:49.880Z,4.50
2018-08-28T21:53:16.960Z,4.40
2018-08-28T21:55:43.978Z,4.67
2018-08-28T21:58:11.023Z,4.60
2018-08-28T22:00:38.033Z,4.17
2018-08-28T22:03:05.502Z,4.90
2018-08-28T22:05:32.530Z,4.83
2018-08-28T22:07:59.534Z,4.70
2018-08-28T22:10:26.538Z,4.40
2018-08-28T22:12:53.569Z,4.93
2018-08-28T22:15:20.576Z,5.10
2018-08-28T22:17:48.215Z,5.10
2018-08-28T22:20:15.239Z,4.60
2018-08-28T22:22:42.241Z,4.90
2018-08-28T22:25:09.225Z,5.00
2018-08-28T22:27:36.255Z,4.70
2018-08-28T22:30:03.256Z,5.20
2018-08-28T22:32:30.256Z,5.30
2018-08-28T22:34:58.811Z,5.47
2018-08-28T22:37:25.799Z,4.70
2018-08-28T22:39:52.792Z,5.40
2018-08-28T22:42:19.843Z,5.80
2018-08-28T22:44:46.833Z,5.53
2018-08-28T22:49:54.348Z,5.75
2018-08-28T22:52:21.356Z,5.70
2018-08-28T22:54:49.210Z,4.93
2018-08-28T22:57:16.256Z,5.97
2018-08-28T22:59:43.341Z,5.40
2018-08-28T23:02:10.269Z,5.43
2018-08-28T23:04:37.313Z,5.47
2018-08-28T23:07:04.310Z,5.00
2018-08-28T23:09:31.314Z,5.33
2018-08-28T23:11:58.339Z,5.60
2018-08-28T23:14:25.335Z,6.10
2018-08-28T23:16:52.334Z,5.50
2018-08-28T23:19:19.376Z,5.77
2018-08-28T23:21:46.370Z,5.93
2018-08-28T23:24:13.368Z,5.77
2018-08-28T23:26:40.415Z,5.63
2018-08-28T23:29:07.411Z,5.27
2018-08-28T23:31:34.417Z,5.63
2018-08-28T23:34:01.464Z,5.77
2018-08-28T23:36:28.457Z,6.07
2018-08-28T23:38:55.456Z,5.67
2018-08-28T23:41:22.565Z,5.43
2018-08-28T23:43:50.388Z,5.80
2018-08-28T23:46:18.123Z,5.83
2018-08-28T23:48:45.152Z,5.30
2018-08-28T23:51:12.137Z,5.53
2018-08-28T23:53:39.208Z,5.63
2018-08-28T23:56:06.227Z,6.10
2018-08-28T23:58:33.253Z,5.57
